Aeroporto :
LOGIN :

Iscrizione | Disclaimer

   EN    FR    IT 

 










Sommario :    VFR   VFR Marginale   IFR   IFR Intensivo   IFR Molto Intensivo
Visibilità : 
Base nubi : 
>= 8 km
>= 3000ft
5 / 8 km
1000 / 3000 ft
1500m / 5 km
500 / 1000 ft
800 / 1500m
200 / 500 ft
< 800m
< 200 ft
Simboli :   Temporali  Nebbia  Neve Forte  Precipitazioni Forti  Vento > 20 kt
SIGMETs :   Varie  Temporali  Ghiacco  Turbolenza  Onda orograficha  Ceneri Vulcaniche






- Altitudine del aeroporto : 23 ft
- Codice IATA : XFW


EDHI - Hamburg Finkenwerder

ULTIMO METAR :
  • 250220Z AUTO 18008KT 140V220 9999 // OVC034/// 14/10 Q1004

METARs OBSOLETI :
  • 250150Z AUTO 19007KT 160V240 9999 // OVC035/// 14/10 Q1005
  • 250120Z AUTO 19008KT 130V220 9999 // OVC038/// 14/10 Q1005
  • 250050Z AUTO 18007KT 140V240 9999 // SCT040/// BKN180/// 14/10 Q1005
  • 250020Z AUTO 19007KT 140V220 9999 // SCT029/// BKN170/// BKN200/// 14/10 Q1006
  • 242350Z AUTO 18007KT 100V230 9999 // OVC029/// 14/10 Q1006
  • 242320Z AUTO 18006KT 120V220 9999 // OVC029/// 14/10 Q1006
  • 242250Z AUTO 18007KT 140V230 9999 // OVC030/// 14/10 Q1006

Previsioni scadute.



MetMap, La meteo Aeronautica in un colpo d'occhio ! - Copyright ORBIFLY Dicembre 2007 - Disclaimer

ORBIFLY MET'MAP TEAM :

Programmazione e sviluppo : Alexandra Zaïnal
Concezione : Baudouin d'Aumeries
Aiuto per la programmazione : Marc-Olivier Méhu
Supporto tecnico e logistico : Manuel Goepfert
Aiuto per la traduzione : Arnaldo La Scala

Contatto : metmap@orbifly.com




FONTI E CREDITI :

   NOAA